Beaver County Airport
KBVI : now visible

Airfield :











YOU CAN JOIN US ON...

 
LOGIN :

Register | Disclaimer

   EN    FR    IT 

 









Legend :    VFR   Marginal VFR   IFR   Intensive IFR   Very Intensive IFR
Visi :
Ceiling :
>= 8 km
>= 3000ft
5 to 8 km
1000 to 3000 ft
1500m to 5 km
500 to 1000 ft
800 to 1500m
200 to 500 ft
< 800m
< 200 ft
Symbols :   Thunderstorms  Fog  Heavy snow  Heavy precipitations  Wind > 20 kt






- Airport Elevation : 1253 ft


KBVI - Beaver County

CURRENT METAR :
  • 160655Z AUTO 24006KT 10SM -RA SCT017 BKN021 OVC043 04/03 A2984 RMK AO2 T00370030

EXPIRED METARs :
  • 160635Z AUTO 25007KT 10SM BKN023 OVC028 04/03 A2985 RMK AO2 T00370030
  • 160615Z AUTO 25004KT 10SM BKN029 OVC048 04/03 A2985 RMK AO2 T00350026
  • 160555Z AUTO 26006KT 10SM SCT029 OVC039 04/03 A2985 RMK AO2 T00350026
  • 160535Z AUTO 26006KT 10SM OVC035 04/03 A2986 RMK AO2 T00350026
  • 160515Z AUTO 26005KT 10SM SCT030 OVC034 04/03 A2986 RMK AO2 T00350027
  • 160455Z AUTO 26005KT 10SM OVC034 04/03 A2986 RMK AO2 T00350027
  • 160435Z AUTO 28006KT 10SM SCT034 OVC039 04/03 A2985 RMK AO2 T00350027
  • 160415Z AUTO 27005KT 10SM BKN039 BKN060 OVC070 04/03 A2985 RMK AO2 T00350026

TAF KBVI
Valid from the 16 at 06:00 until the 17 at 06:00 UTC


160536Z 1606/1706 27007KT P6SM VCSH OVC025
FM160800 28007KT P6SM OVC015
FM161200 29008KT P6SM BKN009
FM161500 29009G16KT P6SM OVC015
FM170400 30005KT P6SM BKN025
KZOB FIR / North America



MET'MAP, your aeronautical weather chart ! - Copyright ORBIFLY December 2007 - Disclaimer

ORBIFLY MET'MAP TEAM :

Programming & Development : Alexandra Zaïnal
Concept & original design : Baudouin d'Aumeries
Assistance for programming : Marc-Olivier Méhu
Technical & hardware support : Manuel Goepfert

Contact : metmap@orbifly.com




SOURCES & CREDITS :

   NOAA       Earth
Advisory